createdAt,value
2019-04-23T00:00:21.739Z,16.70
2019-04-23T00:02:53.424Z,16.70
2019-04-23T00:05:35.440Z,16.70
2019-04-23T00:08:07.432Z,16.70
2019-04-23T00:10:30.045Z,16.60
2019-04-23T00:13:02.275Z,16.70
2019-04-23T00:15:58.668Z,16.70
2019-04-23T00:18:30.107Z,16.70
2019-04-23T00:20:59.316Z,16.70
2019-04-23T00:23:25.304Z,16.60
2019-04-23T00:28:50.494Z,16.40
2019-04-23T00:31:06.445Z,16.30
2019-04-23T00:36:03.636Z,16.10
2019-04-23T00:38:38.428Z,16.10
2019-04-23T00:41:09.513Z,16.10
2019-04-23T00:43:52.649Z,16.10
2019-04-23T00:46:13.997Z,16.00
2019-04-23T00:48:54.279Z,16.00
2019-04-23T00:51:09.971Z,15.90
2019-04-23T00:53:38.869Z,15.70
2019-04-23T00:56:35.015Z,15.70
2019-04-23T00:58:48.198Z,15.70
2019-04-23T01:01:19.663Z,15.70
2019-04-23T01:03:55.220Z,15.70
2019-04-23T01:06:19.413Z,15.80
2019-04-23T01:08:50.707Z,15.60
2019-04-23T01:14:11.750Z,15.40
2019-04-23T01:16:24.805Z,15.40
2019-04-23T01:18:56.253Z,15.30
2019-04-23T01:21:17.918Z,15.20
2019-04-23T01:24:01.595Z,15.10
2019-04-23T01:26:56.353Z,15.00
2019-04-23T01:29:28.982Z,14.90
2019-04-23T01:32:01.130Z,14.80
2019-04-23T01:34:33.313Z,14.80
2019-04-23T01:36:57.481Z,14.70
2019-04-23T01:39:34.687Z,14.70
2019-04-23T01:42:14.000Z,14.50
2019-04-23T01:44:42.416Z,14.40
2019-04-23T01:47:07.803Z,14.40
2019-04-23T01:49:48.423Z,14.30
2019-04-23T01:52:08.436Z,14.40
2019-04-23T01:54:39.113Z,14.40
2019-04-23T01:57:16.679Z,14.40
2019-04-23T01:59:48.619Z,14.30
2019-04-23T02:02:22.823Z,14.30
2019-04-23T02:04:45.990Z,14.10
2019-04-23T02:07:21.812Z,14.10
2019-04-23T02:09:48.534Z,14.10
2019-04-23T02:12:18.134Z,14.00
2019-04-23T02:14:59.510Z,14.10
2019-04-23T02:17:24.932Z,13.90
2019-04-23T02:20:02.317Z,13.80
2019-04-23T02:22:34.407Z,13.70
2019-04-23T02:25:01.866Z,13.70
2019-04-23T02:27:37.892Z,13.50
2019-04-23T02:30:20.856Z,13.50
2019-04-23T02:32:45.746Z,13.70
2019-04-23T02:35:18.499Z,13.70
2019-04-23T02:43:01.267Z,13.70
2019-04-23T02:45:23.905Z,13.50
2019-04-23T02:47:54.340Z,13.50
2019-04-23T02:52:47.264Z,13.30
2019-04-23T02:55:27.188Z,13.30
2019-04-23T02:57:56.187Z,13.20
2019-04-23T03:00:27.658Z,13.20
2019-04-23T03:05:26.365Z,13.30
2019-04-23T03:08:07.446Z,13.20
2019-04-23T03:10:32.451Z,13.20
2019-04-23T03:21:09.957Z,13.20
2019-04-23T03:23:33.668Z,13.20
2019-04-23T03:43:41.140Z,13.00
2019-04-23T03:48:47.221Z,12.90
2019-04-23T03:51:17.285Z,13.00
2019-04-23T03:56:37.914Z,12.80
2019-04-23T03:58:49.365Z,12.80
2019-04-23T04:01:40.945Z,12.70
2019-04-23T04:06:37.686Z,12.70
2019-04-23T04:09:13.273Z,12.80
2019-04-23T04:11:25.464Z,12.80
2019-04-23T04:14:12.556Z,12.80
2019-04-23T04:16:38.286Z,12.70
2019-04-23T04:19:06.421Z,12.70
2019-04-23T04:21:39.817Z,12.70
2019-04-23T04:24:11.248Z,12.60
2019-04-23T04:26:46.772Z,12.70
2019-04-23T04:29:19.099Z,12.60
2019-04-23T04:31:48.134Z,12.60
2019-04-23T04:39:10.041Z,12.40
2019-04-23T04:41:52.411Z,12.50
2019-04-23T04:44:37.354Z,12.50
2019-04-23T04:46:49.941Z,12.50
2019-04-23T04:49:21.430Z,12.60
2019-04-23T04:54:21.661Z,12.60
2019-04-23T04:56:49.844Z,12.60
2019-04-23T04:59:22.731Z,12.70
2019-04-23T05:01:58.525Z,12.60
2019-04-23T05:04:30.603Z,12.50
2019-04-23T05:14:35.430Z,12.70
2019-04-23T05:17:13.243Z,12.70
2019-04-23T05:24:36.685Z,12.90
2019-04-23T05:27:02.502Z,12.80
2019-04-23T05:29:36.383Z,12.90
2019-04-23T05:32:09.567Z,12.80
2019-04-23T05:34:40.078Z,13.00
2019-04-23T05:37:14.037Z,13.00
2019-04-23T05:39:49.492Z,13.00
2019-04-23T05:42:16.965Z,13.00
2019-04-23T05:44:43.240Z,13.10
2019-04-23T05:47:23.206Z,13.10
2019-04-23T05:49:46.053Z,13.10
2019-04-23T05:52:17.911Z,13.10
2019-04-23T05:55:07.466Z,13.20
2019-04-23T05:57:14.009Z,13.20
2019-04-23T05:59:48.522Z,13.20
2019-04-23T06:02:19.729Z,13.20
2019-04-23T06:04:53.195Z,13.20
2019-04-23T06:09:59.298Z,13.30
2019-04-23T06:12:31.414Z,13.30
2019-04-23T06:17:34.016Z,13.40
2019-04-23T06:22:42.360Z,13.60
2019-04-23T06:25:12.648Z,13.70
2019-04-23T06:27:42.551Z,13.80
2019-04-23T06:30:08.363Z,13.80
2019-04-23T06:32:40.270Z,14.00
2019-04-23T06:35:09.999Z,14.10
2019-04-23T06:38:09.016Z,13.90
2019-04-23T06:40:17.936Z,14.00
2019-04-23T06:43:06.564Z,14.10
2019-04-23T06:45:32.590Z,14.20
2019-04-23T06:48:13.152Z,14.40
2019-04-23T06:50:43.035Z,14.60
2019-04-23T06:53:00.573Z,14.60
2019-04-23T06:55:47.122Z,14.80
2019-04-23T06:58:15.666Z,14.80
2019-04-23T07:03:21.868Z,15.00
2019-04-23T07:06:16.778Z,15.20
2019-04-23T07:09:03.984Z,15.10
2019-04-23T07:11:28.429Z,15.20
2019-04-23T07:16:12.763Z,15.50
2019-04-23T07:18:41.108Z,15.50
2019-04-23T07:21:19.794Z,15.60
2019-04-23T07:23:53.608Z,15.70
2019-04-23T07:26:36.010Z,15.80
2019-04-23T07:31:28.095Z,15.80
2019-04-23T07:33:59.219Z,16.10
2019-04-23T07:41:56.344Z,16.10
2019-04-23T07:44:36.806Z,16.20
2019-04-23T07:47:15.687Z,16.30
2019-04-23T07:49:41.463Z,16.50
2019-04-23T07:52:18.002Z,16.60
2019-04-23T07:57:17.179Z,16.70
2019-04-23T07:59:52.181Z,16.90
2019-04-23T08:02:24.214Z,16.80
2019-04-23T08:04:56.438Z,16.80
2019-04-23T08:07:14.715Z,17.00
2019-04-23T08:10:03.952Z,17.30
2019-04-23T08:14:53.531Z,17.50
2019-04-23T08:19:56.115Z,17.90
2019-04-23T08:25:08.716Z,18.10
2019-04-23T08:27:45.289Z,18.00
2019-04-23T08:30:09.831Z,18.20
2019-04-23T08:32:53.844Z,18.20
2019-04-23T08:35:35.800Z,18.30
2019-04-23T08:38:02.645Z,18.30
2019-04-23T08:42:52.735Z,18.30
2019-04-23T08:45:32.824Z,18.30
2019-04-23T08:51:08.144Z,18.50
2019-04-23T08:53:37.840Z,18.40
2019-04-23T08:55:49.447Z,18.10
2019-04-23T08:58:25.121Z,17.90
2019-04-23T09:03:32.812Z,18.30
2019-04-23T09:06:10.860Z,18.40
2019-04-23T09:08:27.770Z,18.20
2019-04-23T09:13:52.275Z,18.60
2019-04-23T09:16:13.566Z,18.80
2019-04-23T09:18:33.771Z,18.70
2019-04-23T09:21:03.674Z,18.70
2019-04-23T09:23:45.119Z,18.90
2019-04-23T09:26:02.441Z,18.90
2019-04-23T09:31:45.764Z,19.50
2019-04-23T09:36:34.530Z,20.10
2019-04-23T09:42:16.193Z,20.70
2019-04-23T09:47:50.422Z,21.00
2019-04-23T09:50:20.195Z,21.10
2019-04-23T09:53:01.840Z,21.00
2019-04-23T09:55:27.473Z,21.10
2019-04-23T09:57:55.602Z,21.30
2019-04-23T10:00:31.498Z,21.50
2019-04-23T10:02:45.532Z,21.70
2019-04-23T10:05:11.284Z,21.80
2019-04-23T10:07:40.595Z,21.90
2019-04-23T10:10:01.632Z,22.10
2019-04-23T10:12:32.144Z,22.30
2019-04-23T10:15:09.977Z,22.30
2019-04-23T10:17:34.038Z,22.30
2019-04-23T10:20:06.633Z,22.40
2019-04-23T10:22:38.024Z,22.40
2019-04-23T10:25:08.892Z,22.50
2019-04-23T10:27:39.226Z,22.70
2019-04-23T10:30:10.090Z,22.90
2019-04-23T10:32:40.127Z,23.10
2019-04-23T10:35:22.227Z,23.10
2019-04-23T10:37:48.972Z,23.40
2019-04-23T10:40:19.447Z,23.60
2019-04-23T10:42:47.904Z,23.90
2019-04-23T10:45:48.112Z,24.00
2019-04-23T10:49:25.886Z,23.90
2019-04-23T10:51:28.780Z,23.70
2019-04-23T10:54:07.289Z,23.90
2019-04-23T10:59:06.509Z,24.00
2019-04-23T11:01:35.878Z,24.10
2019-04-23T11:04:21.214Z,23.90
2019-04-23T11:09:29.178Z,23.60
2019-04-23T11:12:03.973Z,23.60
2019-04-23T11:14:31.015Z,23.40
2019-04-23T11:17:03.643Z,23.30
2019-04-23T11:19:40.495Z,23.20
2019-04-23T11:22:21.008Z,23.10
2019-04-23T11:24:50.182Z,23.10
2019-04-23T11:27:10.332Z,23.20
2019-04-23T11:32:29.461Z,23.30
2019-04-23T11:35:03.467Z,23.20
2019-04-23T11:37:12.421Z,22.80
2019-04-23T11:39:44.594Z,22.80
2019-04-23T11:42:19.623Z,22.90
2019-04-23T11:44:45.749Z,23.10
2019-04-23T11:47:42.487Z,23.10
2019-04-23T11:49:53.402Z,23.00
2019-04-23T11:54:53.046Z,23.20
2019-04-23T11:57:40.727Z,23.20
2019-04-23T11:59:55.633Z,23.20
2019-04-23T12:02:43.222Z,23.30
2019-04-23T12:05:24.760Z,23.10
2019-04-23T12:07:57.561Z,23.00
2019-04-23T12:11:10.390Z,23.00
2019-04-23T12:13:28.537Z,23.10
2019-04-23T12:15:54.821Z,23.20
2019-04-23T12:18:28.318Z,23.40
2019-04-23T12:20:49.125Z,23.20
2019-04-23T12:23:31.618Z,23.20
2019-04-23T12:26:19.754Z,23.20
2019-04-23T12:28:53.640Z,23.30
2019-04-23T12:31:28.641Z,23.30
2019-04-23T12:33:57.638Z,23.30
2019-04-23T12:39:11.330Z,23.30
2019-04-23T12:41:47.818Z,23.20
2019-04-23T12:44:30.623Z,23.10
2019-04-23T12:46:45.738Z,23.10
2019-04-23T12:49:34.772Z,23.00
2019-04-23T12:51:47.358Z,23.00
2019-04-23T12:54:35.761Z,23.10
2019-04-23T12:56:57.400Z,23.20
2019-04-23T12:59:25.314Z,23.20
2019-04-23T13:01:55.857Z,23.10
2019-04-23T13:04:27.828Z,23.10
2019-04-23T13:06:51.006Z,23.20
2019-04-23T13:11:58.038Z,23.40
2019-04-23T13:14:34.792Z,23.30
2019-04-23T13:17:11.389Z,23.20
2019-04-23T13:19:45.088Z,23.40
2019-04-23T13:24:40.768Z,23.40
2019-04-23T13:27:19.923Z,23.40
2019-04-23T13:29:49.918Z,23.20
2019-04-23T13:32:21.593Z,23.20
2019-04-23T13:35:00.554Z,23.20
2019-04-23T13:37:31.651Z,23.20
2019-04-23T13:39:51.910Z,23.20
2019-04-23T13:42:33.403Z,23.30
2019-04-23T13:44:57.799Z,23.40
2019-04-23T13:49:58.402Z,23.50
2019-04-23T13:52:59.733Z,23.50
2019-04-23T13:58:04.985Z,23.70
2019-04-23T14:00:06.515Z,23.80
2019-04-23T14:02:36.927Z,23.80
2019-04-23T14:05:21.687Z,23.90
2019-04-23T14:07:56.535Z,23.80
2019-04-23T14:10:29.776Z,23.80
2019-04-23T14:13:08.823Z,23.80
2019-04-23T14:18:19.744Z,23.90
2019-04-23T14:20:27.755Z,24.00
2019-04-23T14:25:45.056Z,24.10
2019-04-23T14:35:40.475Z,24.20
2019-04-23T14:43:32.831Z,23.90
2019-04-23T14:46:28.372Z,24.00
2019-04-23T14:51:03.651Z,23.90
2019-04-23T14:53:30.278Z,23.80
2019-04-23T14:58:42.598Z,23.90
2019-04-23T15:06:23.770Z,23.80
2019-04-23T15:16:22.227Z,23.90
2019-04-23T15:19:02.629Z,23.90
2019-04-23T15:28:37.446Z,23.80
2019-04-23T15:34:07.589Z,23.70
2019-04-23T15:39:11.754Z,23.60
2019-04-23T15:41:40.487Z,23.60
2019-04-23T15:44:08.630Z,23.50
2019-04-23T15:46:42.737Z,23.40
2019-04-23T15:49:16.216Z,23.40
2019-04-23T15:51:45.093Z,23.40
2019-04-23T15:54:14.373Z,23.50
2019-04-23T15:59:21.102Z,23.30
2019-04-23T16:01:37.333Z,23.30
2019-04-23T16:03:50.938Z,23.30
2019-04-23T16:06:22.992Z,23.20
2019-04-23T16:09:11.117Z,23.20
2019-04-23T16:17:02.113Z,23.20
2019-04-23T16:19:29.063Z,23.20
2019-04-23T16:22:00.235Z,23.20
2019-04-23T16:24:22.235Z,23.20
2019-04-23T16:27:01.028Z,23.20
2019-04-23T16:29:54.114Z,23.20
2019-04-23T16:32:20.992Z,23.10
2019-04-23T16:34:48.974Z,23.20
2019-04-23T16:37:26.521Z,23.20
2019-04-23T16:40:04.514Z,23.10
2019-04-23T16:42:29.881Z,23.00
2019-04-23T16:45:12.457Z,23.00
2019-04-23T16:47:28.621Z,23.00
2019-04-23T16:50:04.498Z,23.00
2019-04-23T16:52:32.888Z,22.90
2019-04-23T16:55:12.917Z,22.90
2019-04-23T17:00:22.787Z,22.80
2019-04-23T17:03:06.128Z,22.80
2019-04-23T17:07:54.921Z,22.70
2019-04-23T17:10:23.249Z,22.70
2019-04-23T17:12:46.278Z,22.60
2019-04-23T17:15:17.891Z,22.60
2019-04-23T17:17:47.855Z,22.60
2019-04-23T17:20:27.203Z,22.50
2019-04-23T17:23:00.573Z,22.50
2019-04-23T17:25:17.620Z,22.40
2019-04-23T17:27:55.843Z,22.40
2019-04-23T17:30:29.806Z,23.40
2019-04-23T17:33:07.925Z,23.00
2019-04-23T17:38:37.894Z,22.20
2019-04-23T17:41:15.673Z,22.00
2019-04-23T17:43:54.676Z,21.90
2019-04-23T17:46:21.633Z,21.80
2019-04-23T17:48:48.028Z,21.70
2019-04-23T17:51:25.355Z,21.60
2019-04-23T17:53:54.513Z,21.60
2019-04-23T17:59:00.665Z,21.30
2019-04-23T18:01:25.718Z,21.20
2019-04-23T18:06:37.903Z,21.10
2019-04-23T18:09:09.225Z,20.90
2019-04-23T18:11:31.973Z,20.80
2019-04-23T18:14:02.673Z,20.50
2019-04-23T18:16:41.335Z,20.30
2019-04-23T18:19:22.875Z,20.10
2019-04-23T18:22:06.994Z,19.90
2019-04-23T18:24:56.071Z,19.80
2019-04-23T18:27:01.293Z,19.60
2019-04-23T18:29:43.849Z,19.50
2019-04-23T18:32:13.104Z,19.40
2019-04-23T18:34:48.691Z,19.20
2019-04-23T18:37:19.399Z,18.90
2019-04-23T18:39:47.090Z,18.80
2019-04-23T18:42:25.859Z,18.80
2019-04-23T18:47:20.207Z,18.80
2019-04-23T18:49:51.291Z,18.70
2019-04-23T18:52:26.117Z,18.60
2019-04-23T18:54:48.806Z,18.50
2019-04-23T19:02:53.717Z,18.40
2019-04-23T19:05:19.173Z,18.50
2019-04-23T19:08:07.584Z,18.30
2019-04-23T19:10:44.675Z,18.20
2019-04-23T19:13:21.761Z,18.20
2019-04-23T19:15:40.633Z,18.10
2019-04-23T19:18:19.086Z,18.10
2019-04-23T19:21:00.930Z,18.00
2019-04-23T19:23:32.094Z,17.90
2019-04-23T19:25:51.844Z,17.80
2019-04-23T19:31:05.586Z,17.70
2019-04-23T19:36:14.216Z,17.00
2019-04-23T19:38:36.336Z,16.80
2019-04-23T19:41:12.491Z,16.70
2019-04-23T19:43:41.787Z,16.40
2019-04-23T19:46:41.933Z,16.30
2019-04-23T19:48:48.543Z,16.30
2019-04-23T19:56:18.519Z,16.00
2019-04-23T20:03:57.879Z,15.50
2019-04-23T20:06:44.436Z,15.70
2019-04-23T20:11:27.181Z,15.50
2019-04-23T20:16:39.983Z,15.50
2019-04-23T20:19:19.309Z,15.60
2019-04-23T20:21:29.967Z,15.30
2019-04-23T20:26:21.714Z,15.30
2019-04-23T20:29:35.239Z,15.30
2019-04-23T20:39:26.042Z,15.80
2019-04-23T20:47:07.414Z,16.30
2019-04-23T20:49:42.283Z,16.30
2019-04-23T20:52:07.130Z,16.40
2019-04-23T20:54:42.239Z,16.50
2019-04-23T20:57:37.145Z,16.40
2019-04-23T21:00:01.817Z,16.40
2019-04-23T21:03:04.735Z,16.40
2019-04-23T21:05:10.101Z,16.40
2019-04-23T21:07:54.222Z,16.30
2019-04-23T21:13:16.009Z,15.80
2019-04-23T21:17:55.858Z,15.40
2019-04-23T21:22:57.399Z,15.20
2019-04-23T21:25:28.347Z,15.10
2019-04-23T21:28:06.732Z,15.00
2019-04-23T21:30:58.954Z,14.90
2019-04-23T21:33:11.812Z,14.90
2019-04-23T21:38:58.683Z,14.80
2019-04-23T21:41:18.687Z,14.80
2019-04-23T21:44:05.624Z,14.80
2019-04-23T21:49:04.640Z,14.60
2019-04-23T21:51:32.745Z,14.60
2019-04-23T21:56:23.291Z,14.20
2019-04-23T22:01:32.176Z,13.70
2019-04-23T22:04:08.812Z,13.90
2019-04-23T22:11:53.545Z,14.00
2019-04-23T22:16:42.940Z,13.80
2019-04-23T22:21:47.260Z,13.50
2019-04-23T22:26:38.161Z,13.30
2019-04-23T22:31:41.769Z,13.20
2019-04-23T22:34:17.206Z,12.90
2019-04-23T22:36:51.757Z,12.90
2019-04-23T22:39:16.478Z,13.10
2019-04-23T22:41:54.053Z,13.10
2019-04-23T22:46:56.187Z,12.90
2019-04-23T22:54:21.281Z,12.80
2019-04-23T22:59:37.321Z,12.50
2019-04-23T23:02:07.548Z,12.30
2019-04-23T23:04:42.310Z,12.20
2019-04-23T23:07:07.645Z,12.30
2019-04-23T23:09:49.124Z,12.20
2019-04-23T23:12:14.368Z,12.30
2019-04-23T23:14:47.346Z,12.10
2019-04-23T23:17:11.538Z,11.90
2019-04-23T23:19:54.309Z,12.10
2019-04-23T23:22:21.003Z,12.20
2019-04-23T23:24:47.044Z,12.10
2019-04-23T23:27:16.230Z,12.10
2019-04-23T23:30:00.347Z,12.20
2019-04-23T23:32:27.351Z,12.10
2019-04-23T23:35:14.523Z,11.90
2019-04-23T23:37:19.264Z,11.90
2019-04-23T23:39:56.971Z,12.00
2019-04-23T23:42:22.410Z,12.20
2019-04-23T23:45:03.327Z,12.20
2019-04-23T23:50:17.922Z,11.90
2019-04-23T23:52:42.416Z,12.10
2019-04-23T23:55:07.897Z,12.20
2019-04-23T23:57:32.240Z,12.30
